Time;durP1;ratioP1;P1;durP2;ratioP2;P2;SDS_P1;SDS_P2;PMS_P1;PMS_P2;Temp;Humidity;BMP_temperature;BMP_pressure;BME280_temperature;BME280_humidity;BME280_pressure;Samples;Min_cycle;Max_cycle;Signal;HPM_P1;HPM_P2
2021/01/15 00:00:56;;;;;;;11.70;6.33;;;;;;;;;;5049864;28;20427;-74
2021/01/15 00:03:22;;;;;;;7.43;5.40;;;;;;;;;;5050369;28;20508;-74
2021/01/15 00:05:48;;;;;;;9.57;6.13;;;;;;;;;;5052294;28;20452;-74
2021/01/15 00:08:14;;;;;;;8.43;6.07;;;;;;;;;;5053349;28;20434;-74
2021/01/15 00:10:40;;;;;;;7.90;5.77;;;;;;;;;;5052289;28;20432;-74
2021/01/15 00:13:06;;;;;;;15.13;7.37;;;;;;;;;;5053044;28;20414;-74
2021/01/15 00:15:33;;;;;;;13.73;6.00;;;;;;;;;;5051069;28;20431;-74
2021/01/15 00:17:59;;;;;;;10.43;6.47;;;;;;;;;;5052977;28;20804;-74
2021/01/15 00:20:25;;;;;;;10.70;6.87;;;;;;;;;;5045609;28;20435;-74
2021/01/15 00:22:51;;;;;;;12.13;6.13;;;;;;;;;;5033245;28;20454;-74
2021/01/15 00:25:16;;;;;;;9.47;5.20;;;;;;;;;;5031772;28;20798;-74
2021/01/15 00:27:43;;;;;;;8.50;5.57;;;;;;;;;;5032978;28;20407;-74
2021/01/15 00:30:09;;;;;;;12.23;6.47;;;;;;;;;;5038398;28;20432;-74
2021/01/15 00:32:36;;;;;;;10.40;6.37;;;;;;;;;;5037034;28;20475;-74
2021/01/15 00:35:02;;;;;;;7.37;5.00;;;;;;;;;;5039814;28;20436;-74
2021/01/15 00:37:28;;;;;;;7.07;6.13;;;;;;;;;;5056985;28;20511;-74
2021/01/15 00:39:54;;;;;;;8.83;5.63;;;;;;;;;;5055586;28;20544;-74
2021/01/15 00:42:20;;;;;;;6.93;5.70;;;;;;;;;;5056737;28;20616;-74
2021/01/15 00:44:46;;;;;;;9.03;6.33;;;;;;;;;;5055544;28;20621;-74
2021/01/15 00:47:12;;;;;;;10.03;6.10;;;;;;;;;;5056636;28;20399;-74
2021/01/15 00:49:38;;;;;;;14.77;8.03;;;;;;;;;;5056273;28;20429;-74
2021/01/15 00:52:05;;;;;;;14.07;6.67;;;;;;;;;;5054359;28;20435;-74
2021/01/15 00:54:31;;;;;;;10.73;6.30;;;;;;;;;;5056460;28;20509;-74
2021/01/15 00:56:58;;;;;;;10.70;6.50;;;;;;;;;;5037768;28;20452;-74
2021/01/15 00:59:24;;;;;;;10.67;6.57;;;;;;;;;;5036495;28;20424;-74
2021/01/15 01:01:50;;;;;;;9.33;6.40;;;;;;;;;;5053210;28;20983;-74
2021/01/15 01:04:16;;;;;;;7.80;5.20;;;;;;;;;;5056553;28;20422;-74
2021/01/15 01:06:42;;;;;;;9.80;6.60;;;;;;;;;;5054411;28;20839;-74
2021/01/15 01:09:08;;;;;;;9.83;6.73;;;;;;;;;;5056415;28;20416;-74
2021/01/15 01:11:34;;;;;;;9.70;6.40;;;;;;;;;;5055329;28;20443;-74
2021/01/15 01:14:03;;;;;;;12.53;6.93;;;;;;;;;;5056010;28;20404;-74
2021/01/15 01:16:29;;;;;;;9.97;6.60;;;;;;;;;;5055508;28;20432;-74
2021/01/15 01:18:55;;;;;;;8.87;6.83;;;;;;;;;;5042829;28;20516;-74
2021/01/15 01:21:22;;;;;;;9.93;5.20;;;;;;;;;;5047856;28;20482;-74
2021/01/15 01:23:48;;;;;;;13.07;6.50;;;;;;;;;;5055949;28;20457;-74
2021/01/15 01:26:14;;;;;;;12.53;6.53;;;;;;;;;;5055208;28;20820;-74
2021/01/15 01:28:42;;;;;;;10.73;5.97;;;;;;;;;;5055844;28;20433;-74
2021/01/15 01:31:08;;;;;;;6.77;5.20;;;;;;;;;;5054883;28;20432;-74
2021/01/15 01:33:35;;;;;;;13.20;6.73;;;;;;;;;;5055818;28;20893;-74
2021/01/15 01:36:01;;;;;;;12.80;6.90;;;;;;;;;;5054841;28;20436;-74
2021/01/15 01:38:27;;;;;;;8.80;6.23;;;;;;;;;;5055628;28;20425;-74
2021/01/15 01:40:53;;;;;;;8.93;6.40;;;;;;;;;;5047717;28;20424;-74
2021/01/15 01:43:19;;;;;;;11.00;6.00;;;;;;;;;;5034595;28;20502;-74
2021/01/15 01:45:45;;;;;;;14.30;6.43;;;;;;;;;;5041393;28;20429;-74
2021/01/15 01:48:11;;;;;;;11.87;6.90;;;;;;;;;;5055493;28;20425;-74
2021/01/15 01:50:41;;;;;;;7.13;4.80;;;;;;;;;;5053318;28;20475;-74
2021/01/15 01:53:08;;;;;;;9.27;5.53;;;;;;;;;;5055797;28;20784;-74
2021/01/15 01:55:34;;;;;;;12.07;5.90;;;;;;;;;;5054382;28;20427;-74
2021/01/15 01:58:00;;;;;;;8.60;4.77;;;;;;;;;;5055317;28;20428;-74
2021/01/15 02:00:27;;;;;;;7.57;5.30;;;;;;;;;;5054581;28;20961;-74
2021/01/15 02:02:53;;;;;;;8.63;5.73;;;;;;;;;;5055247;28;20448;-74
2021/01/15 02:05:19;;;;;;;7.77;6.03;;;;;;;;;;5054458;28;20393;-74
2021/01/15 02:07:45;;;;;;;11.00;5.97;;;;;;;;;;5055198;28;20406;-74
2021/01/15 02:10:23;;;;;;;9.70;5.07;;;;;;;;;;5054124;28;20823;-74
2021/01/15 02:12:52;;;;;;;10.47;6.30;;;;;;;;;;5035435;28;20897;-74
2021/01/15 02:15:20;;;;;;;8.50;5.70;;;;;;;;;;5039233;28;20426;-74
2021/01/15 02:17:51;;;;;;;9.50;6.27;;;;;;;;;;5057755;28;20403;-75
2021/01/15 02:20:44;;;;;;;14.17;7.10;;;;;;;;;;5057069;28;20409;-75
2021/01/15 02:23:14;;;;;;;10.47;5.80;;;;;;;;;;5055905;28;20870;-74
2021/01/15 02:25:46;;;;;;;8.63;6.17;;;;;;;;;;5052843;28;20421;-75
2021/01/15 02:28:29;;;;;;;12.17;6.10;;;;;;;;;;5055153;28;20426;-74
2021/01/15 02:31:02;;;;;;;12.63;6.40;;;;;;;;;;5048363;28;20421;-74
2021/01/15 02:33:40;;;;;;;8.17;5.70;;;;;;;;;;5036966;28;20966;-74
2021/01/15 02:36:08;;;;;;;11.30;6.90;;;;;;;;;;5049581;28;20436;-74
2021/01/15 02:38:40;;;;;;;12.40;7.73;;;;;;;;;;5054638;28;20429;-74
2021/01/15 02:41:18;;;;;;;10.97;6.67;;;;;;;;;;5052208;28;20489;-74
2021/01/15 02:43:45;;;;;;;14.87;6.77;;;;;;;;;;5054322;28;20506;-74
2021/01/15 02:46:14;;;;;;;9.33;5.93;;;;;;;;;;5051319;28;20443;-74
2021/01/15 02:48:41;;;;;;;12.30;7.20;;;;;;;;;;5034268;28;20434;-74
2021/01/15 02:51:07;;;;;;;10.17;6.37;;;;;;;;;;5034239;28;20483;-74
2021/01/15 02:53:38;;;;;;;11.47;7.80;;;;;;;;;;5052244;28;20444;-74
2021/01/15 02:56:04;;;;;;;9.67;5.93;;;;;;;;;;5054422;28;20392;-74
2021/01/15 02:58:30;;;;;;;11.10;6.57;;;;;;;;;;5053257;28;20511;-74
2021/01/15 03:00:56;;;;;;;9.60;6.50;;;;;;;;;;5054017;28;20435;-74
2021/01/15 03:03:22;;;;;;;9.77;7.60;;;;;;;;;;5037997;28;20463;-74
2021/01/15 03:05:50;;;;;;;12.47;6.73;;;;;;;;;;5052706;28;20439;-74
2021/01/15 03:08:18;;;;;;;13.83;7.20;;;;;;;;;;5039081;28;20471;-74
2021/01/15 03:10:45;;;;;;;15.23;6.87;;;;;;;;;;5034023;28;20405;-74
2021/01/15 03:13:11;;;;;;;12.23;7.70;;;;;;;;;;5046662;28;20799;-74
2021/01/15 03:15:38;;;;;;;18.90;7.83;;;;;;;;;;5053855;28;20402;-74
2021/01/15 03:18:04;;;;;;;12.03;6.83;;;;;;;;;;5047921;28;20514;-74
2021/01/15 03:20:31;;;;;;;9.77;6.10;;;;;;;;;;5054195;28;20401;-74
2021/01/15 03:22:57;;;;;;;12.70;7.43;;;;;;;;;;5052655;28;20458;-74
2021/01/15 03:25:23;;;;;;;9.53;6.53;;;;;;;;;;5053856;28;20404;-74
2021/01/15 03:27:53;;;;;;;10.00;7.23;;;;;;;;;;5052846;28;20445;-74
2021/01/15 03:30:23;;;;;;;9.13;6.20;;;;;;;;;;5048525;28;20429;-74
2021/01/15 03:32:59;;;;;;;11.17;7.73;;;;;;;;;;5042499;28;20489;-74
2021/01/15 03:35:26;;;;;;;11.90;7.87;;;;;;;;;;5053789;28;20402;-74
2021/01/15 03:37:55;;;;;;;12.13;7.83;;;;;;;;;;5052613;28;20530;-74
2021/01/15 03:40:21;;;;;;;11.73;6.80;;;;;;;;;;5053665;28;20411;-74
2021/01/15 03:42:47;;;;;;;18.13;7.77;;;;;;;;;;5051237;28;20455;-74
2021/01/15 03:45:13;;;;;;;11.90;7.10;;;;;;;;;;5053556;28;20451;-74
2021/01/15 03:47:39;;;;;;;14.00;9.17;;;;;;;;;;5045868;28;20432;-74
2021/01/15 03:50:06;;;;;;;10.57;7.40;;;;;;;;;;5039967;28;20425;-74
2021/01/15 03:52:32;;;;;;;15.90;7.93;;;;;;;;;;5051549;28;20451;-74
2021/01/15 03:54:58;;;;;;;16.03;8.63;;;;;;;;;;5053463;28;20764;-74
2021/01/15 03:57:24;;;;;;;13.67;7.93;;;;;;;;;;5048144;28;20428;-74
2021/01/15 03:59:50;;;;;;;11.07;7.43;;;;;;;;;;5033161;28;20431;-74
2021/01/15 04:02:16;;;;;;;12.27;7.73;;;;;;;;;;5037322;28;20482;-74
2021/01/15 04:04:48;;;;;;;11.90;7.87;;;;;;;;;;5039060;28;20981;-74
2021/01/15 04:07:14;;;;;;;16.77;8.30;;;;;;;;;;5039664;28;20434;-74
2021/01/15 04:09:40;;;;;;;9.43;6.80;;;;;;;;;;5038784;28;20444;-74
2021/01/15 04:12:06;;;;;;;19.43;8.13;;;;;;;;;;5041352;28;20436;-74
2021/01/15 04:14:32;;;;;;;10.67;7.50;;;;;;;;;;5053036;28;20432;-74
2021/01/15 04:16:58;;;;;;;11.77;7.47;;;;;;;;;;5053633;28;20476;-74
2021/01/15 04:19:24;;;;;;;9.83;6.63;;;;;;;;;;5035058;28;20521;-73
2021/01/15 04:21:54;;;;;;;12.80;7.80;;;;;;;;;;5033154;28;20520;-74
2021/01/15 04:24:20;;;;;;;16.50;8.10;;;;;;;;;;5033627;28;20428;-73
2021/01/15 04:26:46;;;;;;;12.63;8.27;;;;;;;;;;5033037;28;20635;-74
2021/01/15 04:29:12;;;;;;;12.07;7.83;;;;;;;;;;5050611;28;20492;-74
2021/01/15 04:31:38;;;;;;;14.90;8.37;;;;;;;;;;5052933;28;20743;-74
2021/01/15 04:34:04;;;;;;;22.30;8.57;;;;;;;;;;5051927;28;21006;-74
2021/01/15 04:36:34;;;;;;;16.40;9.70;;;;;;;;;;5053001;28;20453;-74
2021/01/15 04:39:00;;;;;;;15.07;8.80;;;;;;;;;;5051647;28;21008;-74
2021/01/15 04:41:26;;;;;;;14.03;8.43;;;;;;;;;;5052962;28;20404;-74
2021/01/15 04:43:54;;;;;;;12.07;8.20;;;;;;;;;;5051257;28;20423;-74
2021/01/15 04:46:24;;;;;;;17.43;8.80;;;;;;;;;;5052901;28;20414;-74
2021/01/15 04:48:50;;;;;;;10.60;7.57;;;;;;;;;;5051772;28;20477;-73
2021/01/15 04:51:19;;;;;;;13.87;8.20;;;;;;;;;;5051064;28;20463;-73
2021/01/15 04:53:46;;;;;;;12.80;8.33;;;;;;;;;;5035659;28;20983;-73
2021/01/15 04:56:16;;;;;;;13.20;7.87;;;;;;;;;;5032844;28;20535;-74
2021/01/15 04:58:47;;;;;;;13.67;7.80;;;;;;;;;;5044969;28;20480;-73
2021/01/15 05:01:14;;;;;;;18.50;9.50;;;;;;;;;;5052753;28;20404;-74
2021/01/15 05:03:41;;;;;;;13.47;8.10;;;;;;;;;;5039835;28;20433;-74
2021/01/15 05:06:08;;;;;;;14.00;9.77;;;;;;;;;;5032749;28;20473;-74
2021/01/15 05:08:36;;;;;;;12.23;7.20;;;;;;;;;;5032366;28;20453;-74
2021/01/15 05:11:03;;;;;;;16.30;9.23;;;;;;;;;;5032602;28;20403;-74
2021/01/15 05:13:35;;;;;;;11.10;7.10;;;;;;;;;;5042568;28;20803;-74
2021/01/15 05:16:03;;;;;;;13.47;7.00;;;;;;;;;;5052420;28;20872;-74
2021/01/15 05:18:31;;;;;;;12.33;8.00;;;;;;;;;;5053748;28;20472;-74
2021/01/15 05:20:57;;;;;;;15.67;9.17;;;;;;;;;;5051356;28;21006;-73
2021/01/15 05:23:24;;;;;;;14.27;8.90;;;;;;;;;;5036787;28;20561;-74
2021/01/15 05:25:50;;;;;;;15.50;9.10;;;;;;;;;;5036877;28;20461;-74
2021/01/15 05:28:16;;;;;;;22.40;8.57;;;;;;;;;;5055769;28;20426;-74
2021/01/15 05:30:42;;;;;;;16.50;8.83;;;;;;;;;;5041193;28;20427;-74
2021/01/15 05:33:15;;;;;;;15.70;9.57;;;;;;;;;;5056051;28;20834;-74
2021/01/15 05:35:51;;;;;;;17.83;10.67;;;;;;;;;;5054376;28;20906;-74
2021/01/15 05:38:18;;;;;;;15.67;9.27;;;;;;;;;;5036027;28;20498;-74
2021/01/15 05:40:44;;;;;;;17.70;10.10;;;;;;;;;;5036590;28;20410;-73
2021/01/15 05:43:18;;;;;;;16.00;8.73;;;;;;;;;;5055509;28;20447;-74
2021/01/15 05:46:03;;;;;;;13.13;8.17;;;;;;;;;;5054342;28;20785;-73
2021/01/15 05:48:29;;;;;;;13.00;8.70;;;;;;;;;;5053691;28;20946;-70
2021/01/15 05:50:55;;;;;;;14.70;9.80;;;;;;;;;;5051929;28;20421;-70
2021/01/15 05:53:21;;;;;;;16.33;9.87;;;;;;;;;;5054385;28;20418;-71
2021/01/15 05:55:57;;;;;;;17.80;10.70;;;;;;;;;;5054224;28;20740;-70
2021/01/15 05:58:23;;;;;;;14.40;8.97;;;;;;;;;;5055212;28;20960;-70
2021/01/15 06:00:52;;;;;;;16.30;9.17;;;;;;;;;;5054319;28;20500;-71
2021/01/15 06:03:22;;;;;;;23.20;9.97;;;;;;;;;;5055374;28;20447;-70
2021/01/15 06:05:49;;;;;;;17.73;10.20;;;;;;;;;;5053930;28;20465;-71
2021/01/15 06:08:15;;;;;;;13.60;9.63;;;;;;;;;;5055133;28;20832;-71
2021/01/15 06:10:42;;;;;;;17.97;9.57;;;;;;;;;;5055043;28;20501;-71
2021/01/15 06:13:08;;;;;;;15.97;9.43;;;;;;;;;;5054636;28;20420;-70
2021/01/15 06:15:44;;;;;;;16.10;10.23;;;;;;;;;;5054938;28;20407;-71
2021/01/15 06:18:15;;;;;;;18.13;10.97;;;;;;;;;;5035149;28;20471;-71
2021/01/15 06:20:43;;;;;;;20.17;11.70;;;;;;;;;;5048339;28;20791;-71
2021/01/15 06:23:12;;;;;;;19.33;11.07;;;;;;;;;;5054001;28;20460;-71
2021/01/15 06:25:54;;;;;;;20.00;11.77;;;;;;;;;;5054830;28;20768;-71
2021/01/15 06:28:20;;;;;;;21.33;10.07;;;;;;;;;;5054210;28;20427;-71
2021/01/15 06:30:58;;;;;;;14.30;10.30;;;;;;;;;;5054908;28;20399;-71
2021/01/15 06:33:24;;;;;;;21.10;9.53;;;;;;;;;;5034976;28;20395;-71
2021/01/15 06:35:50;;;;;;;27.47;12.70;;;;;;;;;;5034916;28;20402;-71
2021/01/15 06:38:20;;;;;;;26.10;13.33;;;;;;;;;;5034677;28;20444;-71
2021/01/15 06:40:46;;;;;;;25.47;12.57;;;;;;;;;;5034502;28;20401;-70
2021/01/15 06:43:13;;;;;;;24.53;13.57;;;;;;;;;;5053068;28;20455;-70
2021/01/15 06:45:46;;;;;;;20.47;12.70;;;;;;;;;;5053338;28;20398;-70
2021/01/15 06:48:14;;;;;;;16.10;10.13;;;;;;;;;;5053425;28;20960;-70
2021/01/15 06:50:41;;;;;;;29.67;13.17;;;;;;;;;;5054479;28;20407;-70
2021/01/15 06:53:17;;;;;;;20.13;12.17;;;;;;;;;;5035792;28;20422;-70
2021/01/15 06:55:45;;;;;;;21.73;11.43;;;;;;;;;;5034371;28;20408;-70
2021/01/15 06:58:21;;;;;;;21.10;12.40;;;;;;;;;;5034125;28;20452;-70
2021/01/15 07:01:14;;;;;;;20.00;11.60;;;;;;;;;;5034181;28;20439;-70
2021/01/15 07:03:59;;;;;;;21.20;12.27;;;;;;;;;;5052013;28;20431;-70
2021/01/15 07:06:29;;;;;;;20.40;12.80;;;;;;;;;;5054026;28;20403;-70
2021/01/15 07:08:55;;;;;;;24.57;12.70;;;;;;;;;;5034907;28;20815;-70
2021/01/15 07:11:22;;;;;;;20.60;12.80;;;;;;;;;;5034184;28;20413;-70
2021/01/15 07:13:52;;;;;;;28.90;13.00;;;;;;;;;;5051351;28;20418;-71
2021/01/15 07:16:27;;;;;;;29.80;14.37;;;;;;;;;;5054675;28;20390;-71
2021/01/15 07:18:58;;;;;;;26.43;11.77;;;;;;;;;;5052484;28;20861;-70
2021/01/15 07:21:30;;;;;;;25.97;12.67;;;;;;;;;;5053922;28;20390;-70
2021/01/15 07:24:03;;;;;;;23.80;12.20;;;;;;;;;;5052895;28;20422;-70
2021/01/15 07:26:39;;;;;;;29.10;13.10;;;;;;;;;;5053979;28;20382;-70
2021/01/15 07:29:06;;;;;;;20.93;12.17;;;;;;;;;;5033796;28;20458;-70
2021/01/15 07:31:32;;;;;;;20.73;12.07;;;;;;;;;;5033677;28;20447;-70
2021/01/15 07:33:59;;;;;;;21.00;11.30;;;;;;;;;;5051695;28;20431;-71
2021/01/15 07:36:38;;;;;;;22.63;12.73;;;;;;;;;;5053803;28;20412;-70
2021/01/15 07:39:11;;;;;;;18.90;11.33;;;;;;;;;;5052250;28;20899;-71
2021/01/15 07:41:38;;;;;;;23.27;13.00;;;;;;;;;;5052921;28;20501;-70
2021/01/15 07:44:24;;;;;;;25.03;13.30;;;;;;;;;;5053026;28;20430;-70
2021/01/15 07:46:57;;;;;;;26.17;12.50;;;;;;;;;;5053304;28;20408;-70
2021/01/15 07:49:24;;;;;;;24.77;12.77;;;;;;;;;;5051035;28;20973;-70
2021/01/15 07:52:05;;;;;;;17.83;11.27;;;;;;;;;;5051773;28;20450;-70
2021/01/15 07:54:59;;;;;;;21.70;12.40;;;;;;;;;;5047595;28;20439;-69
2021/01/15 07:57:25;;;;;;;24.83;12.37;;;;;;;;;;5050247;28;20423;-69
2021/01/15 07:59:51;;;;;;;27.17;13.47;;;;;;;;;;5050440;28;20468;-70
2021/01/15 08:02:18;;;;;;;20.33;11.47;;;;;;;;;;5052293;28;20446;-72
2021/01/15 08:04:44;;;;;;;23.90;10.97;;;;;;;;;;5051830;28;20431;-70
2021/01/15 08:07:22;;;;;;;30.23;11.30;;;;;;;;;;5051643;28;20945;-70
2021/01/15 08:09:48;;;;;;;22.97;12.57;;;;;;;;;;5048653;28;20459;-70
2021/01/15 08:12:14;;;;;;;16.30;10.57;;;;;;;;;;5052790;28;20485;-70
2021/01/15 08:14:40;;;;;;;19.13;11.63;;;;;;;;;;5051777;28;20557;-70
2021/01/15 08:17:14;;;;;;;24.60;11.67;;;;;;;;;;5051334;28;20444;-70
2021/01/15 08:19:41;;;;;;;22.97;11.77;;;;;;;;;;5051566;28;20467;-70
2021/01/15 08:22:07;;;;;;;15.40;10.23;;;;;;;;;;5052533;28;20444;-70
2021/01/15 08:24:43;;;;;;;25.53;12.13;;;;;;;;;;5052008;28;20434;-70
2021/01/15 08:27:15;;;;;;;24.17;13.50;;;;;;;;;;5051206;28;20790;-70
2021/01/15 08:29:41;;;;;;;26.47;11.67;;;;;;;;;;5045979;28;20517;-70
2021/01/15 08:32:08;;;;;;;17.53;9.70;;;;;;;;;;5051109;28;20407;-70
2021/01/15 08:34:35;;;;;;;24.27;12.20;;;;;;;;;;5051199;28;20519;-70
2021/01/15 08:37:01;;;;;;;22.20;12.10;;;;;;;;;;5041892;28;20425;-70
2021/01/15 08:39:27;;;;;;;20.37;11.13;;;;;;;;;;5040530;28;21296;-70
2021/01/15 08:41:57;;;;;;;19.70;10.87;;;;;;;;;;5043724;28;20464;-70
2021/01/15 08:44:23;;;;;;;14.70;11.13;;;;;;;;;;5049544;28;20432;-70
2021/01/15 08:46:50;;;;;;;19.23;11.00;;;;;;;;;;5051733;28;20402;-70
2021/01/15 08:49:17;;;;;;;18.27;11.43;;;;;;;;;;5050362;28;20444;-70
2021/01/15 08:51:46;;;;;;;19.07;10.83;;;;;;;;;;5053475;28;20532;-70
2021/01/15 08:54:12;;;;;;;16.20;10.07;;;;;;;;;;5055169;28;20480;-70
2021/01/15 08:56:41;;;;;;;22.80;12.50;;;;;;;;;;5055416;28;20403;-70
2021/01/15 08:59:11;;;;;;;25.90;13.77;;;;;;;;;;5054982;28;20457;-70
2021/01/15 09:01:41;;;;;;;17.50;11.27;;;;;;;;;;5055283;28;20796;-70
2021/01/15 09:04:08;;;;;;;19.77;11.80;;;;;;;;;;5054268;28;20439;-70
2021/01/15 09:06:34;;;;;;;18.00;11.60;;;;;;;;;;5056031;28;20826;-70
2021/01/15 09:09:03;;;;;;;21.27;12.80;;;;;;;;;;5055315;28;20454;-70
2021/01/15 09:11:31;;;;;;;18.63;11.40;;;;;;;;;;5055521;28;20412;-70
2021/01/15 09:13:57;;;;;;;21.90;11.00;;;;;;;;;;5056155;28;20422;-71
2021/01/15 09:16:24;;;;;;;23.80;12.43;;;;;;;;;;5056205;28;20396;-70
2021/01/15 09:18:54;;;;;;;19.63;11.17;;;;;;;;;;5054618;28;20549;-70
2021/01/15 09:21:20;;;;;;;17.97;10.70;;;;;;;;;;5054909;28;20411;-70
2021/01/15 09:23:47;;;;;;;19.00;11.23;;;;;;;;;;5049179;28;20494;-71
2021/01/15 09:26:13;;;;;;;20.47;10.73;;;;;;;;;;5055414;28;20744;-70
2021/01/15 09:28:39;;;;;;;17.47;10.33;;;;;;;;;;5054046;28;20436;-70
2021/01/15 09:31:05;;;;;;;17.50;11.90;;;;;;;;;;5054971;28;20771;-70
2021/01/15 09:33:31;;;;;;;20.73;11.63;;;;;;;;;;5053788;28;20404;-70
2021/01/15 09:35:57;;;;;;;16.10;11.43;;;;;;;;;;5046121;28;20415;-71
2021/01/15 09:38:23;;;;;;;17.30;9.70;;;;;;;;;;5046361;28;20423;-70
2021/01/15 09:40:49;;;;;;;20.13;11.17;;;;;;;;;;5054230;28;20436;-70
2021/01/15 09:43:18;;;;;;;16.37;10.93;;;;;;;;;;5054390;28;20453;-70
2021/01/15 09:45:44;;;;;;;18.40;11.30;;;;;;;;;;5054034;28;20975;-70
2021/01/15 09:48:10;;;;;;;22.60;12.00;;;;;;;;;;5055092;28;20927;-71
2021/01/15 09:50:36;;;;;;;19.83;11.27;;;;;;;;;;5053646;28;20467;-71
2021/01/15 09:53:02;;;;;;;21.83;11.10;;;;;;;;;;5054488;28;20407;-70
2021/01/15 09:55:28;;;;;;;25.50;11.90;;;;;;;;;;5053903;28;20477;-70
2021/01/15 09:57:54;;;;;;;17.63;10.60;;;;;;;;;;5052907;28;20457;-70
2021/01/15 10:00:21;;;;;;;16.77;9.43;;;;;;;;;;5053751;28;20913;-70
2021/01/15 10:02:47;;;;;;;19.47;10.40;;;;;;;;;;5053661;28;21025;-70
2021/01/15 10:05:13;;;;;;;18.23;10.23;;;;;;;;;;5053404;28;20431;-70
2021/01/15 10:07:39;;;;;;;17.63;9.80;;;;;;;;;;5054772;28;20403;-70
2021/01/15 10:10:07;;;;;;;23.90;12.17;;;;;;;;;;5042193;28;20424;-70
2021/01/15 10:12:33;;;;;;;16.03;10.20;;;;;;;;;;5036089;28;20471;-70
2021/01/15 10:14:59;;;;;;;18.83;10.37;;;;;;;;;;5053264;28;20432;-70
2021/01/15 10:17:25;;;;;;;19.57;10.27;;;;;;;;;;5051064;28;20432;-70
2021/01/15 10:19:51;;;;;;;20.57;13.27;;;;;;;;;;5053840;22;20504;-83
2021/01/15 10:22:17;;;;;;;18.57;11.30;;;;;;;;;;5043987;28;20450;-82
2021/01/15 10:24:43;;;;;;;16.87;9.97;;;;;;;;;;5035102;28;20461;-82
2021/01/15 10:27:09;;;;;;;21.10;11.43;;;;;;;;;;5035002;28;20467;-82
2021/01/15 10:29:35;;;;;;;19.83;11.27;;;;;;;;;;5043395;28;20437;-82
2021/01/15 10:32:01;;;;;;;17.00;10.40;;;;;;;;;;5044764;28;20403;-82
2021/01/15 10:34:28;;;;;;;23.00;12.37;;;;;;;;;;5041417;28;20805;-82
2021/01/15 10:36:54;;;;;;;20.00;10.17;;;;;;;;;;5037335;28;20414;-82
2021/01/15 10:39:20;;;;;;;15.57;10.00;;;;;;;;;;5043520;28;20521;-82
2021/01/15 10:41:52;;;;;;;17.10;10.60;;;;;;;;;;5043968;28;20532;-82
2021/01/15 10:44:19;;;;;;;20.07;10.67;;;;;;;;;;5030371;28;20434;-81
2021/01/15 10:46:48;;;;;;;16.47;9.57;;;;;;;;;;5039845;28;20473;-82
2021/01/15 10:49:15;;;;;;;18.63;9.93;;;;;;;;;;5036506;28;20493;-82
2021/01/15 10:51:42;;;;;;;17.10;9.77;;;;;;;;;;5036747;28;20407;-81
2021/01/15 10:54:09;;;;;;;24.60;13.87;;;;;;;;;;5036137;28;20749;-81
2021/01/15 10:56:35;;;;;;;23.83;12.00;;;;;;;;;;5034820;28;21200;-82
2021/01/15 10:59:02;;;;;;;18.37;10.13;;;;;;;;;;5034562;28;20491;-82
2021/01/15 11:01:34;;;;;;;20.83;11.43;;;;;;;;;;5036493;28;20435;-81
2021/01/15 11:04:01;;;;;;;22.43;10.17;;;;;;;;;;5036491;28;20401;-82
2021/01/15 11:06:27;;;;;;;17.10;11.13;;;;;;;;;;5035777;28;20418;-82
2021/01/15 11:08:53;;;;;;;16.77;9.40;;;;;;;;;;5038597;28;20795;-82
2021/01/15 11:11:19;;;;;;;21.57;10.80;;;;;;;;;;5056550;28;20504;-82
2021/01/15 11:13:45;;;;;;;20.60;10.77;;;;;;;;;;5036001;28;20409;-82
2021/01/15 11:16:11;;;;;;;19.20;10.73;;;;;;;;;;5021143;28;20860;-82
2021/01/15 11:18:37;;;;;;;14.97;9.10;;;;;;;;;;5036282;28;20459;-82
2021/01/15 11:21:03;;;;;;;15.63;10.50;;;;;;;;;;5036336;28;20461;-81
2021/01/15 11:23:29;;;;;;;16.40;8.70;;;;;;;;;;5035630;28;20487;-81
2021/01/15 11:25:55;;;;;;;16.10;9.50;;;;;;;;;;5036153;28;20425;-82
2021/01/15 11:28:21;;;;;;;22.67;11.07;;;;;;;;;;5036997;28;20439;-82
2021/01/15 11:30:47;;;;;;;18.27;9.53;;;;;;;;;;5027495;28;20432;-82
2021/01/15 11:33:13;;;;;;;17.90;10.47;;;;;;;;;;5017618;28;20915;-82
2021/01/15 11:35:40;;;;;;;17.40;10.33;;;;;;;;;;5023176;28;20435;-82
2021/01/15 11:38:06;;;;;;;13.77;9.23;;;;;;;;;;5050494;28;20428;-82
2021/01/15 11:40:32;;;;;;;18.93;9.70;;;;;;;;;;5053316;28;20513;-82
2021/01/15 11:42:58;;;;;;;14.60;8.60;;;;;;;;;;5036997;28;20499;-82
2021/01/15 11:45:26;;;;;;;15.83;11.03;;;;;;;;;;5041037;28;20437;-82
2021/01/15 11:47:53;;;;;;;16.77;9.33;;;;;;;;;;5040341;28;20441;-83
2021/01/15 11:50:21;;;;;;;19.33;11.83;;;;;;;;;;5036846;28;20495;-82
2021/01/15 11:52:47;;;;;;;24.30;11.37;;;;;;;;;;5017771;28;20497;-82
2021/01/15 11:55:13;;;;;;;15.00;10.00;;;;;;;;;;5017249;28;20459;-82
2021/01/15 11:57:40;;;;;;;14.40;9.80;;;;;;;;;;5038420;28;20437;-83
2021/01/15 12:00:06;;;;;;;19.63;10.30;;;;;;;;;;5049607;28;20408;-82
2021/01/15 12:02:32;;;;;;;18.33;10.63;;;;;;;;;;5055958;28;20461;-82
2021/01/15 12:04:58;;;;;;;18.57;10.13;;;;;;;;;;5055318;28;20409;-81
2021/01/15 12:07:24;;;;;;;20.83;10.20;;;;;;;;;;5052092;28;20425;-82
2021/01/15 12:09:50;;;;;;;25.63;11.87;;;;;;;;;;5043341;28;20433;-82
2021/01/15 12:12:16;;;;;;;16.17;10.10;;;;;;;;;;5034844;28;20440;-81
2021/01/15 12:14:42;;;;;;;20.30;10.23;;;;;;;;;;5019922;28;20405;-82
2021/01/15 12:17:08;;;;;;;19.03;10.37;;;;;;;;;;5032308;28;20511;-81
2021/01/15 12:19:34;;;;;;;14.17;8.93;;;;;;;;;;5036707;28;20464;-81
2021/01/15 12:22:00;;;;;;;15.83;9.00;;;;;;;;;;5034419;28;20460;-81
2021/01/15 12:24:26;;;;;;;11.70;8.00;;;;;;;;;;5040407;28;20432;-81
2021/01/15 12:26:52;;;;;;;16.77;8.80;;;;;;;;;;5035965;28;20515;-81
2021/01/15 12:29:18;;;;;;;14.43;9.07;;;;;;;;;;5040691;28;20870;-81
2021/01/15 12:31:44;;;;;;;19.63;9.80;;;;;;;;;;5040132;28;20451;-81
2021/01/15 12:34:10;;;;;;;16.70;9.03;;;;;;;;;;5040306;28;20412;-81
2021/01/15 12:36:36;;;;;;;10.33;8.07;;;;;;;;;;5040113;28;20428;-82
2021/01/15 12:39:02;;;;;;;12.73;7.20;;;;;;;;;;5039618;28;20457;-81
2021/01/15 12:41:28;;;;;;;14.90;8.07;;;;;;;;;;5037769;28;20441;-82
2021/01/15 12:43:54;;;;;;;12.00;7.73;;;;;;;;;;5040409;28;20450;-81
2021/01/15 12:46:20;;;;;;;14.83;8.47;;;;;;;;;;5040881;28;20788;-82
2021/01/15 12:48:46;;;;;;;16.65;9.60;;;;;;;;;;5039987;28;20420;-81
2021/01/15 12:51:12;;;;;;;14.35;8.82;;;;;;;;;;5033750;28;20468;-81
2021/01/15 12:53:38;;;;;;;13.60;8.90;;;;;;;;;;5035429;28;20435;-80
2021/01/15 12:56:04;;;;;;;13.40;8.27;;;;;;;;;;5039178;28;20461;-81
2021/01/15 12:58:30;;;;;;;16.10;8.43;;;;;;;;;;5041086;28;20525;-82
2021/01/15 13:00:59;;;;;;;14.20;8.00;;;;;;;;;;5041193;28;20471;-82
2021/01/15 13:03:25;;;;;;;10.80;7.60;;;;;;;;;;5042224;28;20449;-82
2021/01/15 13:05:51;;;;;;;12.63;8.40;;;;;;;;;;5041131;28;20415;-82
2021/01/15 13:08:17;;;;;;;14.37;7.80;;;;;;;;;;5040689;28;20438;-81
2021/01/15 13:10:46;;;;;;;11.57;7.43;;;;;;;;;;5040173;28;20401;-81
2021/01/15 13:13:12;;;;;;;16.10;9.20;;;;;;;;;;5039340;28;20402;-82
2021/01/15 13:15:38;;;;;;;15.20;10.10;;;;;;;;;;5038642;28;20402;-81
2021/01/15 13:18:04;;;;;;;15.27;9.30;;;;;;;;;;5027877;28;20883;-82
2021/01/15 13:20:31;;;;;;;18.10;8.00;;;;;;;;;;5037367;28;20445;-82
2021/01/15 13:22:58;;;;;;;13.07;9.53;;;;;;;;;;5029753;28;20465;-82
2021/01/15 13:25:24;;;;;;;13.20;8.37;;;;;;;;;;5026931;28;20980;-82
2021/01/15 13:27:51;;;;;;;12.00;8.00;;;;;;;;;;5041296;28;20436;-82
2021/01/15 13:30:18;;;;;;;13.10;8.73;;;;;;;;;;5043411;28;20481;-82
2021/01/15 13:32:44;;;;;;;12.97;7.73;;;;;;;;;;5041886;28;20804;-82
2021/01/15 13:35:10;;;;;;;13.83;8.47;;;;;;;;;;5040864;28;20408;-82
2021/01/15 13:37:37;;;;;;;18.20;7.40;;;;;;;;;;5039185;28;20444;-82
2021/01/15 13:40:04;;;;;;;14.00;7.00;;;;;;;;;;5042774;28;20425;-82
2021/01/15 13:42:30;;;;;;;14.00;7.50;;;;;;;;;;5040414;28;20499;-82
2021/01/15 13:44:56;;;;;;;14.67;8.47;;;;;;;;;;5040970;28;20428;-81
2021/01/15 13:47:22;;;;;;;15.70;7.87;;;;;;;;;;5048779;28;20429;-81
2021/01/15 13:49:49;;;;;;;15.87;9.10;;;;;;;;;;5046970;28;20423;-81
2021/01/15 13:52:15;;;;;;;19.43;9.20;;;;;;;;;;5043190;28;20505;-81
2021/01/15 13:54:41;;;;;;;12.87;7.70;;;;;;;;;;5035682;28;20437;-81
2021/01/15 13:57:07;;;;;;;16.73;9.47;;;;;;;;;;5029983;28;20436;-82
2021/01/15 13:59:33;;;;;;;17.00;9.33;;;;;;;;;;5036174;28;20445;-82
2021/01/15 14:01:59;;;;;;;17.20;9.00;;;;;;;;;;5037824;28;20812;-82
2021/01/15 14:04:25;;;;;;;17.57;11.07;;;;;;;;;;5038728;28;20432;-82
2021/01/15 14:06:51;;;;;;;18.20;10.40;;;;;;;;;;5035219;28;20446;-82
2021/01/15 14:09:17;;;;;;;21.75;11.48;;;;;;;;;;5032821;28;20477;-83
2021/01/15 14:11:43;;;;;;;14.83;10.43;;;;;;;;;;5035719;28;20175;-82
2021/01/15 14:14:09;;;;;;;19.00;11.70;;;;;;;;;;5037226;28;20413;-82
2021/01/15 14:16:35;;;;;;;19.23;12.17;;;;;;;;;;5036725;28;20434;-82
2021/01/15 14:19:02;;;;;;;16.43;10.20;;;;;;;;;;5035817;28;20465;-82
2021/01/15 14:21:30;;;;;;;16.60;10.63;;;;;;;;;;5037560;28;20421;-82
2021/01/15 14:23:58;;;;;;;15.70;11.27;;;;;;;;;;5035057;28;20830;-82
2021/01/15 14:26:23;;;;;;;18.73;11.80;;;;;;;;;;5036444;28;20429;-82
2021/01/15 14:28:50;;;;;;;21.00;10.53;;;;;;;;;;5037489;28;20925;-83